Essex Fells, New Jersey
Current Conditions -  °F | °C
As of 1:53 PM on Monday 20 Oct 2014 (Local Time) from KCDW Reporting Station
Clear Clear  
Wind Chill: 56°   Ceiling: Unl
Heat Index: 56°   Visibility: 10mi
Dew Point: 33°   Wind: 7mph
Humidity: 42%   Direction: NA
Pressure: 30.03"   Gusts: NA
Location:  40.82°N, 74.28°W
Report Text: KCDW 201753Z VRB06KT 10SM CLR 13/01 A3003 RMK AO2 SLP176 T01330006 10139 20028 58027
Loading
Personal Weather Stations






























Interactive Weather Map
Tropical Storm Tracking
New forecast layout! Learn more

10-Day Weather Forecast

Advertisements
Track Severe Weather on mobile